Аэропорт: Бегишево. Набережные Челны, Нижнекамск

ICAO: UWKE

METAR:
2018/09/19 07:30
UWKE 190730Z 31005G10MPS 9999 BKN015CB 10/08 Q1000 R21/210355 NOSIG RMK QFE733/0978
METAR:
2018/09/19 06:24
TAF UWKE 190445Z 1906/2006 33007G12MPS 6000 BKN007 
      TEMPO 1906/1909 29010G15MPS 0700 -SHRA FG BKN003 BKN012CB 
      BECMG 1909/1910 BKN011 
      TEMPO 1909/1918 30010G15MPS 3100 -SHRA BKN007 BKN010CB